sensor_id;sensor_type;location;lat;lon;timestamp;P1;durP1;ratioP1;P2;durP2;ratioP2
17866;SDS011;9059;49.934;8.650;2024-03-08T00:03:53;12.43;;;5.43;;
17866;SDS011;9059;49.934;8.650;2024-03-08T00:13:57;19.13;;;5.73;;
17866;SDS011;9059;49.934;8.650;2024-03-08T00:24:00;12.97;;;5.43;;
17866;SDS011;9059;49.934;8.650;2024-03-08T00:34:04;13.50;;;5.60;;
17866;SDS011;9059;49.934;8.650;2024-03-08T00:44:07;19.20;;;5.73;;
17866;SDS011;9059;49.934;8.650;2024-03-08T00:54:12;12.83;;;5.23;;
17866;SDS011;9059;49.934;8.650;2024-03-08T01:04:18;18.67;;;6.23;;
17866;SDS011;9059;49.934;8.650;2024-03-08T01:14:23;13.07;;;5.33;;
17866;SDS011;9059;49.934;8.650;2024-03-08T01:24:27;15.40;;;5.57;;
17866;SDS011;9059;49.934;8.650;2024-03-08T01:34:32;11.03;;;5.00;;
17866;SDS011;9059;49.934;8.650;2024-03-08T01:44:34;14.70;;;5.87;;
17866;SDS011;9059;49.934;8.650;2024-03-08T01:54:39;12.60;;;5.00;;
17866;SDS011;9059;49.934;8.650;2024-03-08T02:04:43;18.43;;;6.17;;
17866;SDS011;9059;49.934;8.650;2024-03-08T02:14:48;17.57;;;6.13;;
17866;SDS011;9059;49.934;8.650;2024-03-08T02:24:52;14.77;;;5.73;;
17866;SDS011;9059;49.934;8.650;2024-03-08T02:34:56;15.17;;;5.87;;
17866;SDS011;9059;49.934;8.650;2024-03-08T02:45:03;18.23;;;5.40;;
17866;SDS011;9059;49.934;8.650;2024-03-08T02:55:07;11.87;;;5.03;;
17866;SDS011;9059;49.934;8.650;2024-03-08T03:05:15;15.60;;;5.53;;
17866;SDS011;9059;49.934;8.650;2024-03-08T03:15:18;17.77;;;6.07;;
17866;SDS011;9059;49.934;8.650;2024-03-08T03:25:23;15.10;;;6.37;;
17866;SDS011;9059;49.934;8.650;2024-03-08T03:35:27;12.83;;;4.93;;
17866;SDS011;9059;49.934;8.650;2024-03-08T03:45:31;13.90;;;5.40;;
17866;SDS011;9059;49.934;8.650;2024-03-08T03:55:38;16.43;;;5.83;;
17866;SDS011;9059;49.934;8.650;2024-03-08T04:05:43;14.60;;;5.80;;
17866;SDS011;9059;49.934;8.650;2024-03-08T04:15:46;19.00;;;7.60;;
17866;SDS011;9059;49.934;8.650;2024-03-08T04:25:52;16.40;;;6.13;;
17866;SDS011;9059;49.934;8.650;2024-03-08T04:35:55;12.30;;;5.03;;
17866;SDS011;9059;49.934;8.650;2024-03-08T04:46:00;17.23;;;5.23;;
17866;SDS011;9059;49.934;8.650;2024-03-08T04:56:05;16.73;;;5.73;;
17866;SDS011;9059;49.934;8.650;2024-03-08T05:06:10;12.47;;;5.53;;
17866;SDS011;9059;49.934;8.650;2024-03-08T05:16:12;11.90;;;5.57;;
17866;SDS011;9059;49.934;8.650;2024-03-08T05:26:18;14.90;;;5.73;;
17866;SDS011;9059;49.934;8.650;2024-03-08T05:36:21;19.70;;;5.43;;
17866;SDS011;9059;49.934;8.650;2024-03-08T05:46:25;17.07;;;5.67;;
17866;SDS011;9059;49.934;8.650;2024-03-08T05:56:28;13.77;;;5.17;;
17866;SDS011;9059;49.934;8.650;2024-03-08T06:06:33;22.07;;;6.77;;
17866;SDS011;9059;49.934;8.650;2024-03-08T06:16:35;17.23;;;5.97;;
17866;SDS011;9059;49.934;8.650;2024-03-08T06:26:41;21.67;;;6.03;;
17866;SDS011;9059;49.934;8.650;2024-03-08T06:36:44;13.90;;;5.97;;
17866;SDS011;9059;49.934;8.650;2024-03-08T06:46:48;19.80;;;6.50;;
17866;SDS011;9059;49.934;8.650;2024-03-08T06:56:51;19.37;;;6.53;;
17866;SDS011;9059;49.934;8.650;2024-03-08T07:06:55;16.33;;;6.30;;
17866;SDS011;9059;49.934;8.650;2024-03-08T07:16:58;19.07;;;6.57;;
17866;SDS011;9059;49.934;8.650;2024-03-08T07:27:07;18.83;;;6.50;;
17866;SDS011;9059;49.934;8.650;2024-03-08T07:37:10;22.27;;;7.27;;
17866;SDS011;9059;49.934;8.650;2024-03-08T07:47:14;16.53;;;6.17;;
17866;SDS011;9059;49.934;8.650;2024-03-08T07:57:18;16.13;;;6.53;;
17866;SDS011;9059;49.934;8.650;2024-03-08T08:07:23;19.58;;;7.75;;
17866;SDS011;9059;49.934;8.650;2024-03-08T08:17:26;15.63;;;6.60;;
17866;SDS011;9059;49.934;8.650;2024-03-08T08:27:30;19.13;;;7.53;;
17866;SDS011;9059;49.934;8.650;2024-03-08T08:37:34;13.48;;;6.13;;
17866;SDS011;9059;49.934;8.650;2024-03-08T08:47:40;18.63;;;6.88;;
17866;SDS011;9059;49.934;8.650;2024-03-08T08:57:44;18.98;;;6.68;;
17866;SDS011;9059;49.934;8.650;2024-03-08T09:07:48;13.35;;;6.50;;
17866;SDS011;9059;49.934;8.650;2024-03-08T09:17:51;19.15;;;6.50;;
17866;SDS011;9059;49.934;8.650;2024-03-08T09:27:55;16.35;;;5.45;;
17866;SDS011;9059;49.934;8.650;2024-03-08T09:37:58;18.35;;;6.88;;
17866;SDS011;9059;49.934;8.650;2024-03-08T09:48:03;18.75;;;6.97;;
17866;SDS011;9059;49.934;8.650;2024-03-08T09:58:06;16.95;;;6.25;;
17866;SDS011;9059;49.934;8.650;2024-03-08T10:08:39;14.82;;;6.25;;
17866;SDS011;9059;49.934;8.650;2024-03-08T10:18:45;13.05;;;6.22;;
17866;SDS011;9059;49.934;8.650;2024-03-08T10:28:50;12.45;;;6.18;;
17866;SDS011;9059;49.934;8.650;2024-03-08T10:38:54;22.70;;;6.68;;
17866;SDS011;9059;49.934;8.650;2024-03-08T10:49:00;14.52;;;6.63;;
17866;SDS011;9059;49.934;8.650;2024-03-08T10:59:05;19.85;;;7.53;;
17866;SDS011;9059;49.934;8.650;2024-03-08T11:09:12;17.65;;;7.60;;
17866;SDS011;9059;49.934;8.650;2024-03-08T11:19:31;15.35;;;6.78;;
17866;SDS011;9059;49.934;8.650;2024-03-08T11:29:38;17.35;;;7.68;;
17866;SDS011;9059;49.934;8.650;2024-03-08T11:39:46;17.60;;;8.13;;
17866;SDS011;9059;49.934;8.650;2024-03-08T11:49:51;16.23;;;6.47;;
17866;SDS011;9059;49.934;8.650;2024-03-08T11:59:55;14.55;;;6.68;;
17866;SDS011;9059;49.934;8.650;2024-03-08T12:10:16;15.80;;;6.82;;
17866;SDS011;9059;49.934;8.650;2024-03-08T12:20:21;21.63;;;7.15;;
17866;SDS011;9059;49.934;8.650;2024-03-08T12:30:26;15.73;;;6.95;;
17866;SDS011;9059;49.934;8.650;2024-03-08T12:40:30;15.32;;;6.65;;
17866;SDS011;9059;49.934;8.650;2024-03-08T12:50:37;13.52;;;6.53;;
17866;SDS011;9059;49.934;8.650;2024-03-08T13:00:40;17.35;;;7.00;;
17866;SDS011;9059;49.934;8.650;2024-03-08T13:10:46;14.60;;;6.35;;
17866;SDS011;9059;49.934;8.650;2024-03-08T13:20:49;13.73;;;7.05;;
17866;SDS011;9059;49.934;8.650;2024-03-08T13:30:55;13.23;;;6.88;;
17866;SDS011;9059;49.934;8.650;2024-03-08T13:41:03;15.02;;;7.65;;
17866;SDS011;9059;49.934;8.650;2024-03-08T13:51:07;18.60;;;6.82;;
17866;SDS011;9059;49.934;8.650;2024-03-08T14:01:12;13.23;;;6.85;;
17866;SDS011;9059;49.934;8.650;2024-03-08T14:11:16;16.45;;;6.90;;
17866;SDS011;9059;49.934;8.650;2024-03-08T14:21:21;15.43;;;7.32;;
17866;SDS011;9059;49.934;8.650;2024-03-08T14:31:25;17.58;;;7.65;;
17866;SDS011;9059;49.934;8.650;2024-03-08T14:41:29;16.60;;;7.47;;
17866;SDS011;9059;49.934;8.650;2024-03-08T14:51:33;16.27;;;7.20;;
17866;SDS011;9059;49.934;8.650;2024-03-08T15:01:36;14.82;;;8.27;;
17866;SDS011;9059;49.934;8.650;2024-03-08T15:11:41;17.80;;;7.53;;
17866;SDS011;9059;49.934;8.650;2024-03-08T15:21:46;14.57;;;8.02;;
17866;SDS011;9059;49.934;8.650;2024-03-08T15:31:51;13.68;;;7.57;;
17866;SDS011;9059;49.934;8.650;2024-03-08T15:41:55;13.33;;;8.00;;
17866;SDS011;9059;49.934;8.650;2024-03-08T15:52:01;12.02;;;6.78;;
17866;SDS011;9059;49.934;8.650;2024-03-08T16:02:03;11.68;;;6.38;;
17866;SDS011;9059;49.934;8.650;2024-03-08T16:12:08;10.95;;;6.57;;
17866;SDS011;9059;49.934;8.650;2024-03-08T16:22:11;10.77;;;6.53;;
17866;SDS011;9059;49.934;8.650;2024-03-08T16:32:15;11.90;;;6.28;;
17866;SDS011;9059;49.934;8.650;2024-03-08T16:42:20;11.70;;;5.72;;
17866;SDS011;9059;49.934;8.650;2024-03-08T16:52:24;12.75;;;5.85;;
17866;SDS011;9059;49.934;8.650;2024-03-08T17:02:28;22.92;;;11.30;;
17866;SDS011;9059;49.934;8.650;2024-03-08T17:12:33;15.60;;;4.80;;
17866;SDS011;9059;49.934;8.650;2024-03-08T17:22:37;11.48;;;5.00;;
17866;SDS011;9059;49.934;8.650;2024-03-08T17:32:41;9.63;;;4.30;;
17866;SDS011;9059;49.934;8.650;2024-03-08T17:42:44;11.75;;;4.43;;
17866;SDS011;9059;49.934;8.650;2024-03-08T17:52:50;12.35;;;4.75;;
17866;SDS011;9059;49.934;8.650;2024-03-08T18:02:55;21.70;;;8.02;;
17866;SDS011;9059;49.934;8.650;2024-03-08T18:13:00;17.80;;;7.28;;
17866;SDS011;9059;49.934;8.650;2024-03-08T18:23:10;12.68;;;4.65;;
17866;SDS011;9059;49.934;8.650;2024-03-08T18:33:15;10.52;;;4.15;;
17866;SDS011;9059;49.934;8.650;2024-03-08T18:43:19;22.35;;;7.25;;
17866;SDS011;9059;49.934;8.650;2024-03-08T18:53:28;10.60;;;4.78;;
17866;SDS011;9059;49.934;8.650;2024-03-08T19:03:31;9.13;;;3.60;;
17866;SDS011;9059;49.934;8.650;2024-03-08T19:13:37;13.35;;;4.65;;
17866;SDS011;9059;49.934;8.650;2024-03-08T19:23:40;13.05;;;3.92;;
17866;SDS011;9059;49.934;8.650;2024-03-08T19:33:47;12.82;;;4.28;;
17866;SDS011;9059;49.934;8.650;2024-03-08T19:43:50;10.88;;;4.20;;
17866;SDS011;9059;49.934;8.650;2024-03-08T19:53:54;13.75;;;4.32;;
17866;SDS011;9059;49.934;8.650;2024-03-08T20:03:57;8.85;;;3.53;;
17866;SDS011;9059;49.934;8.650;2024-03-08T20:14:01;13.23;;;3.85;;
17866;SDS011;9059;49.934;8.650;2024-03-08T20:24:06;8.65;;;3.67;;
17866;SDS011;9059;49.934;8.650;2024-03-08T20:34:14;10.85;;;4.13;;
17866;SDS011;9059;49.934;8.650;2024-03-08T20:44:19;9.23;;;3.97;;
17866;SDS011;9059;49.934;8.650;2024-03-08T20:54:24;9.98;;;4.25;;
17866;SDS011;9059;49.934;8.650;2024-03-08T21:04:26;13.00;;;5.00;;
17866;SDS011;9059;49.934;8.650;2024-03-08T21:14:31;15.55;;;6.38;;
17866;SDS011;9059;49.934;8.650;2024-03-08T21:24:34;10.02;;;4.38;;
17866;SDS011;9059;49.934;8.650;2024-03-08T21:34:40;9.93;;;4.00;;
17866;SDS011;9059;49.934;8.650;2024-03-08T21:44:43;12.40;;;4.60;;
17866;SDS011;9059;49.934;8.650;2024-03-08T21:54:47;10.63;;;4.40;;
17866;SDS011;9059;49.934;8.650;2024-03-08T22:04:51;12.67;;;4.50;;
17866;SDS011;9059;49.934;8.650;2024-03-08T22:14:55;12.57;;;4.43;;
17866;SDS011;9059;49.934;8.650;2024-03-08T22:24:58;14.02;;;4.63;;
17866;SDS011;9059;49.934;8.650;2024-03-08T22:35:03;12.30;;;4.27;;
17866;SDS011;9059;49.934;8.650;2024-03-08T22:45:08;11.87;;;4.23;;
17866;SDS011;9059;49.934;8.650;2024-03-08T22:55:13;12.27;;;4.10;;
17866;SDS011;9059;49.934;8.650;2024-03-08T23:05:22;14.90;;;4.93;;
17866;SDS011;9059;49.934;8.650;2024-03-08T23:15:26;8.83;;;4.03;;
17866;SDS011;9059;49.934;8.650;2024-03-08T23:25:30;11.37;;;4.13;;
17866;SDS011;9059;49.934;8.650;2024-03-08T23:35:35;17.20;;;5.07;;
17866;SDS011;9059;49.934;8.650;2024-03-08T23:45:40;11.90;;;4.50;;
17866;SDS011;9059;49.934;8.650;2024-03-08T23:55:44;11.40;;;4.93;;
